Wetterdaten: Woche 14.09.09 - 20.09.09 (KW38)
Datum Zeit Temperatur Luftfeuchte Luftdruck Niederschlag Wind Richtung Sonnenschein Solar Taupunkt Windchill Windben
14.09.2009 00:00 14.3 C 66 % 1015.7 hPa 0.0 l/m 1.8 km/h (1 Bft) O-SO 0.00 h 0 W/m 8.0 C 14.3 C 4.2 km/h (1 Bft)
14.09.2009 01:00 13.7 C 66 % 1015.3 hPa 0.0 l/m 1.7 km/h (1 Bft) O-SO 0.00 h 0 W/m 7.5 C 13.7 C 3.7 km/h (1 Bft)
14.09.2009 02:00 12.4 C 74 % 1015.0 hPa 0.0 l/m 1.8 km/h (1 Bft) O 0.00 h 0 W/m 7.8 C 12.4 C 4.3 km/h (1 Bft)
14.09.2009 03:00 12.6 C 73 % 1014.9 hPa 0.0 l/m 2.5 km/h (1 Bft) O-SO 0.00 h 0 W/m 7.9 C 12.6 C 5.7 km/h (1 Bft)
14.09.2009 04:00 12.6 C 73 % 1014.9 hPa 0.0 l/m 3.0 km/h (1 Bft) N-NO 0.00 h 0 W/m 7.9 C 12.6 C 6.7 km/h (2 Bft)
14.09.2009 05:00 12.0 C 74 % 1014.7 hPa 0.0 l/m 2.7 km/h (1 Bft) N-NO 0.00 h 0 W/m 7.5 C 12.0 C 6.0 km/h (2 Bft)
14.09.2009 06:00 11.1 C 78 % 1014.6 hPa 0.0 l/m 0.6 km/h (0 Bft) SO 0.00 h 0 W/m 7.3 C 11.1 C 2.2 km/h (1 Bft)
14.09.2009 07:00 10.3 C 82 % 1015.0 hPa 0.0 l/m 0.3 km/h (0 Bft) O 0.00 h 16 W/m 7.4 C 10.3 C 1.1 km/h (1 Bft)
14.09.2009 08:00 10.8 C 83 % 1015.3 hPa 0.0 l/m 0.3 km/h (0 Bft) NO 0.00 h 66 W/m 7.9 C 10.8 C 1.5 km/h (1 Bft)
14.09.2009 09:00 12.0 C 78 % 1015.2 hPa 0.0 l/m 1.3 km/h (1 Bft) O-SO 0.00 h 129 W/m 8.2 C 12.0 C 3.4 km/h (1 Bft)
14.09.2009 10:00 13.1 C 75 % 1014.9 hPa 0.0 l/m 2.2 km/h (1 Bft) W-NW 0.22 h 214 W/m 8.8 C 13.1 C 4.7 km/h (1 Bft)
14.09.2009 11:00 14.3 C 71 % 1014.4 hPa 0.0 l/m 1.7 km/h (1 Bft) W-NW 0.12 h 222 W/m 9.1 C 14.3 C 3.7 km/h (1 Bft)
14.09.2009 12:00 14.2 C 68 % 1014.1 hPa 0.0 l/m 1.6 km/h (1 Bft) N-NW 0.00 h 166 W/m 8.4 C 14.2 C 3.1 km/h (1 Bft)
14.09.2009 13:00 14.5 C 67 % 1013.7 hPa 0.0 l/m 4.7 km/h (1 Bft) O-SO 0.17 h 316 W/m 8.5 C 14.5 C 8.4 km/h (2 Bft)
14.09.2009 14:00 14.2 C 64 % 1013.5 hPa 0.0 l/m 7.8 km/h (2 Bft) O-SO 0.02 h 303 W/m 7.6 C 14.2 C 12.2 km/h (3 Bft)
14.09.2009 15:00 14.9 C 62 % 1013.3 hPa 0.0 l/m 5.9 km/h (2 Bft) O-SO 0.73 h 448 W/m 7.6 C 14.9 C 9.8 km/h (2 Bft)
14.09.2009 16:00 15.7 C 60 % 1012.8 hPa 0.0 l/m 3.9 km/h (1 Bft) O-SO 0.60 h 327 W/m 8.0 C 15.7 C 7.3 km/h (2 Bft)
14.09.2009 17:00 15.6 C 57 % 1012.7 hPa 0.0 l/m 3.5 km/h (1 Bft) O-SO 0.82 h 305 W/m 7.0 C 15.6 C 7.4 km/h (2 Bft)
14.09.2009 18:00 14.8 C 61 % 1012.7 hPa 0.0 l/m 1.1 km/h (1 Bft) O-SO 0.00 h 36 W/m 7.4 C 14.8 C 3.0 km/h (1 Bft)
14.09.2009 19:00 13.4 C 69 % 1012.7 hPa 0.0 l/m 1.3 km/h (1 Bft) S-SO 0.05 h 21 W/m 7.8 C 13.4 C 3.4 km/h (1 Bft)
14.09.2009 20:00 11.7 C 76 % 1012.8 hPa 0.0 l/m 0.5 km/h (0 Bft) S-SO 0.00 h 0 W/m 7.7 C 11.7 C 1.1 km/h (1 Bft)
14.09.2009 21:00 10.2 C 83 % 1013.2 hPa 0.0 l/m 0.5 km/h (0 Bft) SO 0.00 h 0 W/m 7.5 C 10.2 C 1.2 km/h (1 Bft)
14.09.2009 22:00 9.2 C 87 % 1013.2 hPa 0.0 l/m 0.4 km/h (0 Bft) SO 0.00 h 0 W/m 7.2 C 9.2 C 1.0 km/h (0 Bft)
14.09.2009 23:00 8.7 C 90 % 1013.3 hPa 0.0 l/m 0.9 km/h (0 Bft) SO 0.00 h 0 W/m 7.2 C 8.7 C 1.8 km/h (1 Bft)
15.09.2009 00:00 8.7 C 92 % 1013.4 hPa 0.0 l/m 0.2 km/h (0 Bft) O-SO 0.00 h 0 W/m 7.4 C 8.7 C 0.7 km/h (0 Bft)
15.09.2009 01:00 8.5 C 92 % 1013.3 hPa 0.0 l/m 0.2 km/h (0 Bft) O-SO 0.00 h 0 W/m 7.3 C 8.5 C 0.6 km/h (0 Bft)
15.09.2009 02:00 8.3 C 93 % 1013.3 hPa 0.0 l/m 0.1 km/h (0 Bft) O-SO 0.00 h 0 W/m 7.3 C 8.3 C 0.3 km/h (0 Bft)
15.09.2009 03:00 8.2 C 94 % 1013.2 hPa 0.0 l/m 0.0 km/h (0 Bft) O-SO 0.00 h 0 W/m 7.3 C 8.2 C 0.4 km/h (0 Bft)
15.09.2009 04:00 8.6 C 95 % 1013.2 hPa 0.0 l/m 0.3 km/h (0 Bft) O-SO 0.00 h 0 W/m 7.9 C 8.6 C 1.4 km/h (1 Bft)
15.09.2009 05:00 9.0 C 95 % 1013.2 hPa 0.0 l/m 0.3 km/h (0 Bft) NW 0.00 h 0 W/m 8.3 C 9.0 C 1.1 km/h (0 Bft)
15.09.2009 06:00 9.4 C 95 % 1013.2 hPa 0.0 l/m 0.7 km/h (0 Bft) NO 0.00 h 0 W/m 8.7 C 9.4 C 2.2 km/h (1 Bft)
15.09.2009 07:00 9.8 C 92 % 1013.4 hPa 0.2 l/m 0.3 km/h (0 Bft) NO 0.00 h 13 W/m 8.7 C 9.8 C 1.2 km/h (1 Bft)
15.09.2009 08:00 10.3 C 91 % 1013.6 hPa 0.0 l/m 0.3 km/h (0 Bft) O-NO 0.00 h 70 W/m 9.0 C 10.3 C 1.6 km/h (1 Bft)
15.09.2009 09:00 11.0 C 88 % 1014.0 hPa 0.0 l/m 0.6 km/h (0 Bft) O-SO 0.00 h 74 W/m 9.0 C 11.0 C 2.5 km/h (1 Bft)
15.09.2009 10:00 11.9 C 79 % 1014.5 hPa 0.0 l/m 3.3 km/h (1 Bft) O-SO 0.02 h 195 W/m 8.4 C 11.9 C 7.2 km/h (2 Bft)
15.09.2009 11:00 13.1 C 74 % 1014.2 hPa 0.0 l/m 3.3 km/h (1 Bft) O-SO 0.03 h 224 W/m 8.6 C 13.1 C 7.0 km/h (2 Bft)
15.09.2009 12:00 13.8 C 72 % 1013.9 hPa 0.0 l/m 2.9 km/h (1 Bft) O-SO 0.03 h 288 W/m 8.8 C 13.8 C 6.4 km/h (2 Bft)
15.09.2009 13:00 14.9 C 69 % 1013.5 hPa 0.0 l/m 4.5 km/h (1 Bft) O-SO 0.58 h 464 W/m 9.4 C 14.9 C 8.5 km/h (2 Bft)
15.09.2009 14:00 16.3 C 66 % 1013.2 hPa 0.0 l/m 4.0 km/h (1 Bft) O-SO 0.93 h 560 W/m 9.9 C 16.3 C 7.5 km/h (2 Bft)
15.09.2009 15:00 16.8 C 66 % 1012.7 hPa 0.0 l/m 1.4 km/h (1 Bft) SO 0.08 h 246 W/m 10.5 C 16.8 C 3.5 km/h (1 Bft)
15.09.2009 16:00 17.1 C 66 % 1012.5 hPa 0.0 l/m 1.6 km/h (1 Bft) SO 0.38 h 256 W/m 10.6 C 17.1 C 3.6 km/h (1 Bft)
15.09.2009 17:00 17.4 C 66 % 1012.5 hPa 0.0 l/m 1.6 km/h (1 Bft) W-NW 0.25 h 167 W/m 10.9 C 17.4 C 3.6 km/h (1 Bft)
15.09.2009 18:00 17.2 C 67 % 1012.3 hPa 0.0 l/m 3.0 km/h (1 Bft) W 0.00 h 76 W/m 11.0 C 17.2 C 5.3 km/h (1 Bft)
15.09.2009 19:00 16.2 C 71 % 1012.5 hPa 0.0 l/m 0.9 km/h (0 Bft) W 0.10 h 22 W/m 10.9 C 16.2 C 2.6 km/h (1 Bft)
15.09.2009 20:00 14.8 C 77 % 1013.0 hPa 0.0 l/m 1.4 km/h (1 Bft) NW 0.00 h 0 W/m 10.7 C 14.8 C 3.2 km/h (1 Bft)
15.09.2009 21:00 14.0 C 80 % 1013.4 hPa 0.0 l/m 0.4 km/h (0 Bft) N 0.00 h 0 W/m 10.6 C 14.0 C 1.7 km/h (1 Bft)
15.09.2009 22:00 13.6 C 82 % 1013.2 hPa 0.0 l/m 0.6 km/h (0 Bft) N 0.00 h 0 W/m 10.6 C 13.6 C 2.1 km/h (1 Bft)
15.09.2009 23:00 13.2 C 84 % 1012.8 hPa 0.0 l/m 0.3 km/h (0 Bft) N-NO 0.00 h 0 W/m 10.6 C 13.2 C 1.0 km/h (0 Bft)
16.09.2009 00:00 12.8 C 85 % 1012.7 hPa 0.0 l/m 0.3 km/h (0 Bft) N-NO 0.00 h 0 W/m 10.4 C 12.8 C 1.0 km/h (0 Bft)
16.09.2009 01:00 12.1 C 88 % 1012.3 hPa 0.0 l/m 0.4 km/h (0 Bft) N-NO 0.00 h 0 W/m 10.1 C 12.1 C 1.5 km/h (1 Bft)
16.09.2009 02:00 11.8 C 90 % 1011.7 hPa 0.0 l/m 0.1 km/h (0 Bft) N-NO 0.00 h 0 W/m 10.3 C 11.8 C 0.9 km/h (0 Bft)
16.09.2009 03:00 11.8 C 92 % 1011.0 hPa 0.0 l/m 0.2 km/h (0 Bft) N-NO 0.00 h 0 W/m 10.6 C 11.8 C 1.0 km/h (0 Bft)
16.09.2009 04:00 12.0 C 93 % 1010.5 hPa 0.0 l/m 1.3 km/h (1 Bft) N 0.00 h 0 W/m 11.0 C 12.0 C 3.0 km/h (1 Bft)
16.09.2009 05:00 12.3 C 95 % 1009.9 hPa 0.0 l/m 0.1 km/h (0 Bft) O 0.00 h 0 W/m 11.5 C 12.3 C 0.5 km/h (0 Bft)
16.09.2009 06:00 12.5 C 96 % 1009.0 hPa 0.0 l/m 0.6 km/h (0 Bft) N-NO 0.00 h 0 W/m 11.9 C 12.5 C 2.0 km/h (1 Bft)
16.09.2009 07:00 13.0 C 97 % 1008.7 hPa 0.0 l/m 0.2 km/h (0 Bft) SO 0.00 h 12 W/m 12.5 C 13.0 C 0.9 km/h (0 Bft)
16.09.2009 08:00 13.8 C 97 % 1008.7 hPa 0.0 l/m 0.1 km/h (0 Bft) SO 0.00 h 52 W/m 13.3 C 13.8 C 0.7 km/h (0 Bft)
16.09.2009 09:00 14.8 C 97 % 1008.5 hPa 0.0 l/m 1.0 km/h (0 Bft) W-SW 0.02 h 117 W/m 14.3 C 14.8 C 2.7 km/h (1 Bft)
16.09.2009 10:00 17.5 C 81 % 1008.0 hPa 0.0 l/m 2.7 km/h (1 Bft) N 0.43 h 301 W/m 14.2 C 17.5 C 6.1 km/h (2 Bft)
16.09.2009 11:00 18.9 C 73 % 1007.8 hPa 0.0 l/m 3.6 km/h (1 Bft) O-SO 0.17 h 275 W/m 13.9 C 18.9 C 6.6 km/h (2 Bft)
16.09.2009 12:00 18.7 C 72 % 1007.5 hPa 0.0 l/m 4.1 km/h (1 Bft) O-SO 0.00 h 187 W/m 13.5 C 18.7 C 7.6 km/h (2 Bft)
16.09.2009 13:00 18.1 C 73 % 1007.6 hPa 0.0 l/m 2.9 km/h (1 Bft) O-SO 0.00 h 113 W/m 13.2 C 18.1 C 5.9 km/h (2 Bft)
16.09.2009 14:00 17.8 C 78 % 1007.8 hPa 0.2 l/m 0.5 km/h (0 Bft) O-SO 0.00 h 114 W/m 13.8 C 17.8 C 1.7 km/h (1 Bft)
16.09.2009 15:00 17.9 C 81 % 1007.6 hPa 0.0 l/m 2.6 km/h (1 Bft) N-NW 0.00 h 90 W/m 14.6 C 17.9 C 4.7 km/h (1 Bft)
16.09.2009 16:00 16.9 C 85 % 1007.5 hPa 0.0 l/m 3.1 km/h (1 Bft) N-NW 0.00 h 84 W/m 14.4 C 16.9 C 5.5 km/h (1 Bft)
16.09.2009 17:00 16.4 C 87 % 1007.6 hPa 0.0 l/m 5.0 km/h (1 Bft) N-NW 0.00 h 66 W/m 14.3 C 16.4 C 8.2 km/h (2 Bft)
16.09.2009 18:00 16.1 C 89 % 1008.0 hPa 0.0 l/m 3.3 km/h (1 Bft) N-NW 0.00 h 28 W/m 14.2 C 16.1 C 6.1 km/h (2 Bft)
16.09.2009 19:00 15.7 C 90 % 1008.0 hPa 0.0 l/m 3.6 km/h (1 Bft) N-NW 0.00 h 8 W/m 14.0 C 15.7 C 6.5 km/h (2 Bft)
16.09.2009 20:00 15.5 C 91 % 1008.4 hPa 0.4 l/m 3.0 km/h (1 Bft) W-NW 0.00 h 0 W/m 14.0 C 15.5 C 5.7 km/h (1 Bft)
16.09.2009 21:00 15.2 C 93 % 1008.9 hPa 0.8 l/m 1.2 km/h (1 Bft) N-NW 0.00 h 0 W/m 14.1 C 15.2 C 3.0 km/h (1 Bft)
16.09.2009 22:00 15.0 C 94 % 1008.9 hPa 0.0 l/m 0.3 km/h (0 Bft) N-NW 0.00 h 0 W/m 14.1 C 15.0 C 1.2 km/h (1 Bft)
16.09.2009 23:00 14.9 C 96 % 1009.1 hPa 0.0 l/m 0.1 km/h (0 Bft) O-SO 0.00 h 0 W/m 14.3 C 14.9 C 0.3 km/h (0 Bft)
17.09.2009 00:00 14.8 C 97 % 1009.3 hPa 0.0 l/m 0.0 km/h (0 Bft) N 0.00 h 0 W/m 14.4 C 14.8 C 0.0 km/h (0 Bft)
17.09.2009 01:00 14.9 C 97 % 1009.5 hPa 0.0 l/m 0.0 km/h (0 Bft) N 0.00 h 0 W/m 14.4 C 14.9 C 0.3 km/h (0 Bft)
17.09.2009 02:00 15.0 C 98 % 1009.9 hPa 0.2 l/m 0.0 km/h (0 Bft) N 0.00 h 0 W/m 14.7 C 15.0 C 0.0 km/h (0 Bft)
17.09.2009 03:00 15.1 C 98 % 1010.0 hPa 0.8 l/m 0.0 km/h (0 Bft) N 0.00 h 0 W/m 14.8 C 15.1 C 0.0 km/h (0 Bft)
17.09.2009 04:00 15.2 C 98 % 1010.1 hPa 0.6 l/m 0.0 km/h (0 Bft) N 0.00 h 0 W/m 14.9 C 15.2 C 0.1 km/h (0 Bft)
17.09.2009 05:00 15.2 C 99 % 1010.1 hPa 0.4 l/m 0.0 km/h (0 Bft) N 0.00 h 0 W/m 15.0 C 15.2 C 0.0 km/h (0 Bft)
17.09.2009 06:00 15.3 C 99 % 1010.3 hPa 0.0 l/m 0.0 km/h (0 Bft) N 0.00 h 0 W/m 15.1 C 15.3 C 0.0 km/h (0 Bft)
17.09.2009 07:00 15.3 C 99 % 1010.6 hPa 0.2 l/m 0.0 km/h (0 Bft) N 0.00 h 6 W/m 15.1 C 15.3 C 0.1 km/h (0 Bft)
17.09.2009 08:00 15.4 C 99 % 1011.0 hPa 0.2 l/m 0.0 km/h (0 Bft) N 0.00 h 21 W/m 15.3 C 15.4 C 0.1 km/h (0 Bft)
17.09.2009 09:00 15.6 C 100 % 1011.5 hPa 3.2 l/m 0.0 km/h (0 Bft) N 0.00 h 27 W/m 15.6 C 15.6 C 0.0 km/h (0 Bft)
17.09.2009 10:00 15.9 C 100 % 1012.2 hPa 1.2 l/m 0.1 km/h (0 Bft) S-SO 0.00 h 70 W/m 15.9 C 15.9 C 0.6 km/h (0 Bft)
17.09.2009 11:00 16.7 C 100 % 1012.5 hPa 0.4 l/m 0.0 km/h (0 Bft) N 0.00 h 156 W/m 16.7 C 16.7 C 0.3 km/h (0 Bft)
17.09.2009 12:00 17.6 C 100 % 1012.6 hPa 0.0 l/m 0.2 km/h (0 Bft) S-SO 0.00 h 178 W/m 17.5 C 17.6 C 1.3 km/h (1 Bft)
17.09.2009 13:00 18.1 C 99 % 1012.6 hPa 0.0 l/m 0.3 km/h (0 Bft) W-NW 0.00 h 238 W/m 18.0 C 18.1 C 1.6 km/h (1 Bft)
17.09.2009 14:00 18.8 C 97 % 1013.0 hPa 0.0 l/m 0.3 km/h (0 Bft) W-NW 0.00 h 212 W/m 18.3 C 18.8 C 1.1 km/h (1 Bft)
17.09.2009 15:00 19.3 C 92 % 1013.0 hPa 0.0 l/m 1.7 km/h (1 Bft) W-NW 0.47 h 340 W/m 17.9 C 19.3 C 3.4 km/h (1 Bft)
17.09.2009 16:00 19.9 C 85 % 1013.0 hPa 0.0 l/m 3.3 km/h (1 Bft) NW 0.28 h 307 W/m 17.2 C 19.9 C 5.8 km/h (2 Bft)
17.09.2009 17:00 19.3 C 86 % 1013.0 hPa 0.0 l/m 1.3 km/h (1 Bft) NW 0.00 h 107 W/m 16.9 C 19.3 C 3.0 km/h (1 Bft)
17.09.2009 18:00 19.0 C 84 % 1013.5 hPa 0.0 l/m 1.3 km/h (1 Bft) N-NW 0.00 h 23 W/m 16.3 C 19.0 C 3.2 km/h (1 Bft)
17.09.2009 19:00 18.4 C 87 % 1014.0 hPa 0.0 l/m 0.8 km/h (0 Bft) N-NO 0.00 h 7 W/m 16.1 C 18.4 C 2.8 km/h (1 Bft)
17.09.2009 20:00 17.6 C 85 % 1014.8 hPa 0.0 l/m 1.7 km/h (1 Bft) NO 0.00 h 0 W/m 15.0 C 17.6 C 4.3 km/h (1 Bft)
17.09.2009 21:00 17.2 C 85 % 1015.4 hPa 0.0 l/m 2.0 km/h (1 Bft) NO 0.00 h 0 W/m 14.6 C 17.2 C 4.9 km/h (1 Bft)
17.09.2009 22:00 16.8 C 87 % 1015.5 hPa 0.0 l/m 0.6 km/h (0 Bft) O 0.00 h 0 W/m 14.5 C 16.8 C 2.0 km/h (1 Bft)
17.09.2009 23:00 16.5 C 87 % 1015.4 hPa 0.0 l/m 0.4 km/h (0 Bft) O-SO 0.00 h 0 W/m 14.4 C 16.5 C 1.2 km/h (1 Bft)
18.09.2009 00:00 16.2 C 88 % 1015.3 hPa 0.0 l/m 0.5 km/h (0 Bft) N-NO 0.00 h 0 W/m 14.3 C 16.2 C 1.8 km/h (1 Bft)
18.09.2009 01:00 16.1 C 89 % 1015.2 hPa 0.0 l/m 0.1 km/h (0 Bft) N 0.00 h 0 W/m 14.3 C 16.1 C 0.8 km/h (0 Bft)
18.09.2009 02:00 16.1 C 90 % 1015.2 hPa 0.0 l/m 0.3 km/h (0 Bft) N-NO 0.00 h 0 W/m 14.4 C 16.1 C 1.3 km/h (1 Bft)
18.09.2009 03:00 16.1 C 90 % 1014.9 hPa 0.0 l/m 0.5 km/h (0 Bft) N-NO 0.00 h 0 W/m 14.5 C 16.1 C 1.6 km/h (1 Bft)
18.09.2009 04:00 16.0 C 90 % 1014.6 hPa 0.0 l/m 0.5 km/h (0 Bft) NO 0.00 h 0 W/m 14.4 C 16.0 C 2.0 km/h (1 Bft)
18.09.2009 05:00 16.1 C 90 % 1014.6 hPa 0.0 l/m 0.3 km/h (0 Bft) O 0.00 h 0 W/m 14.5 C 16.1 C 1.7 km/h (1 Bft)
18.09.2009 06:00 16.1 C 90 % 1014.5 hPa 0.0 l/m 0.3 km/h (0 Bft) N-NO 0.00 h 0 W/m 14.5 C 16.1 C 1.2 km/h (1 Bft)
18.09.2009 07:00 16.1 C 91 % 1014.7 hPa 0.0 l/m 0.0 km/h (0 Bft) O 0.00 h 8 W/m 14.6 C 16.1 C 0.3 km/h (0 Bft)
18.09.2009 08:00 16.0 C 92 % 1014.8 hPa 0.0 l/m 0.0 km/h (0 Bft) O 0.00 h 25 W/m 14.7 C 16.0 C 0.7 km/h (0 Bft)
18.09.2009 09:00 16.2 C 94 % 1014.8 hPa 0.0 l/m 0.5 km/h (0 Bft) NO 0.00 h 77 W/m 15.2 C 16.2 C 1.8 km/h (1 Bft)
18.09.2009 10:00 16.9 C 93 % 1014.7 hPa 0.0 l/m 1.8 km/h (1 Bft) N-NO 0.00 h 170 W/m 15.7 C 16.9 C 4.4 km/h (1 Bft)
18.09.2009 11:00 18.0 C 86 % 1014.8 hPa 0.0 l/m 1.7 km/h (1 Bft) O 0.00 h 212 W/m 15.7 C 18.0 C 4.9 km/h (1 Bft)
18.09.2009 12:00 19.3 C 81 % 1014.8 hPa 0.0 l/m 0.8 km/h (0 Bft) N-NW 0.00 h 241 W/m 16.0 C 19.3 C 2.4 km/h (1 Bft)
18.09.2009 13:00 20.2 C 77 % 1014.4 hPa 0.0 l/m 0.9 km/h (0 Bft) N 0.00 h 273 W/m 16.0 C 20.2 C 2.8 km/h (1 Bft)
18.09.2009 14:00 20.5 C 75 % 1013.7 hPa 0.0 l/m 1.1 km/h (1 Bft) N 0.07 h 261 W/m 16.0 C 20.5 C 3.6 km/h (1 Bft)
18.09.2009 15:00 20.6 C 72 % 1013.4 hPa 0.0 l/m 2.4 km/h (1 Bft) O-SO 0.10 h 240 W/m 15.4 C 20.6 C 4.8 km/h (1 Bft)
18.09.2009 16:00 20.7 C 72 % 1013.0 hPa 0.0 l/m 2.4 km/h (1 Bft) O-SO 0.12 h 166 W/m 15.5 C 20.7 C 4.9 km/h (1 Bft)
18.09.2009 17:00 21.1 C 71 % 1012.7 hPa 0.0 l/m 2.0 km/h (1 Bft) O 0.52 h 195 W/m 15.6 C 21.1 C 4.8 km/h (1 Bft)
18.09.2009 18:00 20.8 C 72 % 1012.5 hPa 0.0 l/m 0.3 km/h (0 Bft) NO 0.00 h 59 W/m 15.6 C 20.8 C 1.2 km/h (1 Bft)
18.09.2009 19:00 19.6 C 79 % 1012.6 hPa 0.0 l/m 1.8 km/h (1 Bft) O 0.02 h 15 W/m 15.8 C 19.6 C 2.9 km/h (1 Bft)
18.09.2009 20:00 17.9 C 85 % 1012.8 hPa 0.0 l/m 0.3 km/h (0 Bft) O-SO 0.00 h 0 W/m 15.4 C 17.9 C 0.8 km/h (0 Bft)
18.09.2009 21:00 16.9 C 90 % 1013.0 hPa 0.0 l/m 0.0 km/h (0 Bft) N 0.00 h 0 W/m 15.2 C 16.9 C 0.1 km/h (0 Bft)
18.09.2009 22:00 16.2 C 92 % 1013.0 hPa 0.0 l/m 0.2 km/h (0 Bft) O-SO 0.00 h 0 W/m 14.9 C 16.2 C 0.7 km/h (0 Bft)
18.09.2009 23:00 15.5 C 94 % 1013.1 hPa 0.0 l/m 0.9 km/h (0 Bft) O-SO 0.00 h 0 W/m 14.5 C 15.5 C 1.5 km/h (1 Bft)
19.09.2009 00:00 14.9 C 96 % 1013.2 hPa 0.0 l/m 1.9 km/h (1 Bft) O 0.00 h 0 W/m 14.3 C 14.9 C 3.2 km/h (1 Bft)
19.09.2009 01:00 14.6 C 97 % 1013.1 hPa 0.0 l/m 1.3 km/h (1 Bft) O 0.00 h 0 W/m 14.1 C 14.6 C 2.3 km/h (1 Bft)
19.09.2009 02:00 14.8 C 98 % 1013.4 hPa 0.0 l/m 0.8 km/h (0 Bft) O 0.00 h 0 W/m 14.4 C 14.8 C 1.5 km/h (1 Bft)
19.09.2009 03:00 15.0 C 98 % 1013.4 hPa 0.0 l/m 0.0 km/h (0 Bft) O-SO 0.00 h 0 W/m 14.7 C 15.0 C 0.2 km/h (0 Bft)
19.09.2009 04:00 15.3 C 99 % 1013.3 hPa 0.0 l/m 0.1 km/h (0 Bft) O-SO 0.00 h 0 W/m 15.1 C 15.3 C 0.3 km/h (0 Bft)
19.09.2009 05:00 15.4 C 99 % 1013.4 hPa 0.0 l/m 0.0 km/h (0 Bft) N 0.00 h 0 W/m 15.2 C 15.4 C 0.0 km/h (0 Bft)
19.09.2009 06:00 15.4 C 99 % 1013.5 hPa 0.0 l/m 0.0 km/h (0 Bft) N 0.00 h 0 W/m 15.2 C 15.4 C 0.0 km/h (0 Bft)
19.09.2009 07:00 15.3 C 99 % 1013.9 hPa 0.0 l/m 0.1 km/h (0 Bft) O-SO 0.00 h 18 W/m 15.2 C 15.3 C 0.6 km/h (0 Bft)
19.09.2009 08:00 15.8 C 99 % 1014.6 hPa 0.0 l/m 0.0 km/h (0 Bft) N 0.00 h 41 W/m 15.6 C 15.8 C 0.1 km/h (0 Bft)
19.09.2009 09:00 16.5 C 100 % 1014.8 hPa 0.0 l/m 1.2 km/h (1 Bft) W 0.00 h 84 W/m 16.4 C 16.5 C 2.7 km/h (1 Bft)
19.09.2009 10:00 17.1 C 99 % 1015.1 hPa 0.0 l/m 5.2 km/h (1 Bft) W 0.00 h 179 W/m 16.9 C 17.1 C 8.8 km/h (2 Bft)
19.09.2009 11:00 18.0 C 95 % 1015.3 hPa 0.0 l/m 2.2 km/h (1 Bft) W-NW 0.00 h 172 W/m 17.2 C 18.0 C 4.3 km/h (1 Bft)
19.09.2009 12:00 19.1 C 84 % 1015.3 hPa 0.0 l/m 2.3 km/h (1 Bft) W-NW 0.30 h 279 W/m 16.3 C 19.1 C 4.8 km/h (1 Bft)
19.09.2009 13:00 21.1 C 72 % 1014.8 hPa 0.0 l/m 5.7 km/h (1 Bft) W 0.82 h 581 W/m 15.9 C 21.1 C 9.0 km/h (2 Bft)
19.09.2009 14:00 21.4 C 71 % 1014.6 hPa 0.0 l/m 9.3 km/h (2 Bft) W 1.00 h 584 W/m 15.9 C 21.4 C 15.2 km/h (3 Bft)
19.09.2009 15:00 21.4 C 70 % 1014.7 hPa 0.0 l/m 8.7 km/h (2 Bft) W 1.00 h 502 W/m 15.6 C 21.4 C 14.9 km/h (3 Bft)
19.09.2009 16:00 21.9 C 68 % 1014.4 hPa 0.0 l/m 5.6 km/h (1 Bft) W 1.00 h 371 W/m 15.6 C 21.9 C 9.0 km/h (2 Bft)
19.09.2009 17:00 21.9 C 69 % 1014.1 hPa 0.0 l/m 5.0 km/h (1 Bft) W-SW 0.88 h 241 W/m 15.8 C 21.9 C 7.9 km/h (2 Bft)
19.09.2009 18:00 20.9 C 71 % 1014.6 hPa 0.0 l/m 3.4 km/h (1 Bft) W 0.00 h 51 W/m 15.4 C 20.9 C 6.3 km/h (2 Bft)
19.09.2009 19:00 19.3 C 75 % 1015.0 hPa 0.0 l/m 0.1 km/h (0 Bft) W-NW 0.00 h 14 W/m 14.8 C 19.3 C 0.6 km/h (0 Bft)
19.09.2009 20:00 17.8 C 82 % 1015.3 hPa 0.0 l/m 0.2 km/h (0 Bft) O 0.00 h 0 W/m 14.8 C 17.8 C 1.3 km/h (1 Bft)
19.09.2009 21:00 16.8 C 87 % 1015.7 hPa 0.0 l/m 1.4 km/h (1 Bft) O 0.00 h 0 W/m 14.5 C 16.8 C 2.7 km/h (1 Bft)
19.09.2009 22:00 16.2 C 90 % 1016.2 hPa 0.0 l/m 1.1 km/h (0 Bft) O 0.00 h 0 W/m 14.5 C 16.2 C 2.1 km/h (1 Bft)
19.09.2009 23:00 16.1 C 93 % 1016.3 hPa 0.0 l/m 1.1 km/h (1 Bft) O-SO 0.00 h 0 W/m 14.9 C 16.1 C 2.0 km/h (1 Bft)
20.09.2009 00:00 15.9 C 94 % 1016.7 hPa 0.4 l/m 0.0 km/h (0 Bft) O-SO 0.00 h 0 W/m 15.0 C 15.9 C 0.4 km/h (0 Bft)
20.09.2009 01:00 16.0 C 95 % 1016.7 hPa 0.0 l/m 1.6 km/h (1 Bft) N-NO 0.00 h 0 W/m 15.3 C 16.0 C 3.9 km/h (1 Bft)
20.09.2009 02:00 15.8 C 96 % 1016.8 hPa 0.8 l/m 0.4 km/h (0 Bft) N-NO 0.00 h 0 W/m 15.2 C 15.8 C 1.4 km/h (1 Bft)
20.09.2009 03:00 15.8 C 96 % 1016.9 hPa 1.0 l/m 0.1 km/h (0 Bft) N-NO 0.00 h 0 W/m 15.2 C 15.8 C 0.4 km/h (0 Bft)
20.09.2009 04:00 15.8 C 97 % 1016.7 hPa 0.2 l/m 0.1 km/h (0 Bft) N-NO 0.00 h 0 W/m 15.3 C 15.8 C 0.5 km/h (0 Bft)
20.09.2009 05:00 15.7 C 97 % 1016.7 hPa 0.0 l/m 0.6 km/h (0 Bft) N-NW 0.00 h 0 W/m 15.2 C 15.7 C 1.8 km/h (1 Bft)
20.09.2009 06:00 15.5 C 97 % 1016.7 hPa 0.0 l/m 0.5 km/h (0 Bft) NO 0.00 h 0 W/m 15.1 C 15.5 C 1.5 km/h (1 Bft)
20.09.2009 07:00 15.4 C 98 % 1017.2 hPa 0.0 l/m 0.1 km/h (0 Bft) NO 0.00 h 8 W/m 15.1 C 15.4 C 0.6 km/h (0 Bft)
20.09.2009 08:00 15.5 C 98 % 1017.9 hPa 0.0 l/m 0.0 km/h (0 Bft) N 0.00 h 31 W/m 15.2 C 15.5 C 0.0 km/h (0 Bft)
20.09.2009 09:00 16.1 C 99 % 1018.2 hPa 0.0 l/m 0.1 km/h (0 Bft) NO 0.00 h 101 W/m 15.9 C 16.1 C 0.9 km/h (0 Bft)
20.09.2009 10:00 17.2 C 98 % 1018.5 hPa 0.0 l/m 1.2 km/h (1 Bft) N 0.37 h 272 W/m 17.0 C 17.2 C 2.6 km/h (1 Bft)
20.09.2009 11:00 18.0 C 92 % 1018.5 hPa 0.0 l/m 0.7 km/h (0 Bft) N 0.25 h 326 W/m 16.7 C 18.0 C 2.0 km/h (1 Bft)
20.09.2009 12:00 19.2 C 84 % 1018.1 hPa 0.2 l/m 2.5 km/h (1 Bft) N-NW 0.62 h 526 W/m 16.3 C 19.2 C 4.8 km/h (1 Bft)
20.09.2009 13:00 20.7 C 76 % 1017.8 hPa 0.0 l/m 3.2 km/h (1 Bft) W-NW 1.00 h 676 W/m 16.2 C 20.7 C 5.9 km/h (2 Bft)
20.09.2009 14:00 21.5 C 68 % 1017.2 hPa 0.0 l/m 2.7 km/h (1 Bft) O-SO 0.82 h 535 W/m 15.4 C 21.5 C 5.3 km/h (1 Bft)
20.09.2009 15:00 22.3 C 66 % 1017.0 hPa 0.0 l/m 2.1 km/h (1 Bft) N 0.75 h 441 W/m 15.5 C 22.3 C 4.8 km/h (1 Bft)
20.09.2009 16:00 22.4 C 64 % 1016.7 hPa 0.0 l/m 2.2 km/h (1 Bft) O-SO 0.60 h 289 W/m 15.1 C 22.4 C 4.6 km/h (1 Bft)
20.09.2009 17:00 21.7 C 67 % 1016.7 hPa 0.0 l/m 1.1 km/h (1 Bft) SO 0.17 h 130 W/m 15.2 C 21.7 C 2.8 km/h (1 Bft)
20.09.2009 18:00 21.6 C 68 % 1016.8 hPa 0.0 l/m 0.1 km/h (0 Bft) SO 0.00 h 44 W/m 15.3 C 21.6 C 0.8 km/h (0 Bft)
20.09.2009 19:00 20.0 C 75 % 1017.2 hPa 0.0 l/m 1.0 km/h (0 Bft) SO 0.00 h 12 W/m 15.5 C 20.0 C 1.7 km/h (1 Bft)
20.09.2009 20:00 17.7 C 85 % 1018.3 hPa 0.0 l/m 1.6 km/h (1 Bft) O 0.00 h 0 W/m 15.0 C 17.7 C 2.9 km/h (1 Bft)
20.09.2009 21:00 16.6 C 89 % 1018.8 hPa 0.0 l/m 1.1 km/h (1 Bft) O 0.00 h 0 W/m 14.8 C 16.6 C 2.2 km/h (1 Bft)
20.09.2009 22:00 16.2 C 91 % 1019.3 hPa 0.0 l/m 0.0 km/h (0 Bft) O 0.00 h 0 W/m 14.7 C 16.2 C 0.3 km/h (0 Bft)
20.09.2009 23:00 15.6 C 93 % 1019.6 hPa 0.0 l/m 0.4 km/h (0 Bft) O 0.00 h 0 W/m 14.5 C 15.6 C 1.3 km/h (1 Bft)
Min-Datum _ 15.09.09 14.09.09 16.09.09 - 14.09.09 - - - 14.09.09 15.09.09 14.09.09
_ Min-Zeit 03:00 17:11 12:30 - 00:00 - - - 17:26 02:47 00:01
Minimum _ 8.1 C 53 % 1007.3 hPa - 0.0 km/h (0 Bft) - - - 5.9 C 8.2 C 0.0 km/h (0 Bft)
Max-Datum _ 20.09.09 17.09.09 20.09.09 17.09.09 19.09.09 - 14.09.09 14.09.09 17.09.09 20.09.09 19.09.09
_ Max-Zeit 15:32 08:48 23:30 09:53 14:34 - 10:32 15:22 15:42 15:32 14:45
Maximum _ 22.8 C 100 % 1019.6 hPa 3.2 l/m 17.4 km/h
W (3 Bft)
- 0.02 h 865 W/m 18.7 C 22.8 C 26.1 km/h
W (4 Bft)
Durchschnitt _ 15.8 C 85 % 1013.5 hPa #11.4 l/m 1.4 km/h (1 Bft) O-SO #16:53 h 185 W/m 13.1 C 15.8 C 3.0 km/h (1 Bft)
© Kaiko 2009